createdAt,value
2023-03-12T00:18:06.180Z,978.6
2023-03-12T00:37:25.591Z,978.5
2023-03-12T00:56:44.377Z,978.4
2023-03-12T01:16:03.751Z,978.3
2023-03-12T01:35:23.701Z,978.3
2023-03-12T01:54:41.676Z,978.1
2023-03-12T02:14:00.162Z,977.9
2023-03-12T02:33:19.336Z,977.6
2023-03-12T02:52:38.432Z,977.7
2023-03-12T03:11:58.648Z,977.6
2023-03-12T03:31:14.904Z,977.6
2023-03-12T03:50:35.026Z,977.2
2023-03-12T04:09:53.678Z,977.2
2023-03-12T04:29:13.429Z,977.1
2023-03-12T04:48:33.421Z,977
2023-03-12T05:07:52.187Z,976.7
2023-03-12T05:27:12.229Z,976.8
2023-03-12T05:46:31.609Z,976.7
2023-03-12T06:05:50.302Z,976.3
2023-03-12T06:25:09.772Z,976
2023-03-12T06:44:28.500Z,976
2023-03-12T07:03:46.876Z,976.1
2023-03-12T07:23:06.764Z,976.1
2023-03-12T07:42:26.847Z,976.2
2023-03-12T08:01:47.719Z,976.1
2023-03-12T08:21:05.079Z,976
2023-03-12T08:40:24.911Z,976.2
2023-03-12T08:59:43.095Z,976.1
2023-03-12T09:19:02.424Z,976
2023-03-12T09:38:21.966Z,975.9
2023-03-12T09:57:43.491Z,975.9
2023-03-12T10:17:03.965Z,975.9
2023-03-12T10:36:23.796Z,975.9
2023-03-12T10:55:45.256Z,976
2023-03-12T11:15:05.985Z,976.1
2023-03-12T11:34:26.777Z,976.1
2023-03-12T11:53:49.279Z,975.9
2023-03-12T12:13:10.776Z,975.8
2023-03-12T12:32:43.198Z,975.7
2023-03-12T12:51:54.144Z,975.7
2023-03-12T13:11:21.159Z,975.6
2023-03-12T13:30:37.706Z,975.4
2023-03-12T13:49:59.794Z,975.2
2023-03-12T14:09:22.489Z,975
2023-03-12T14:28:43.471Z,974.8
2023-03-12T14:48:04.084Z,974.7
2023-03-12T15:07:25.292Z,974.9
2023-03-12T15:26:47.316Z,975.1
2023-03-12T15:46:06.205Z,975
2023-03-12T16:05:24.688Z,975.1
2023-03-12T16:24:43.144Z,975.3
2023-03-12T16:44:03.753Z,975.5
2023-03-12T17:03:23.210Z,975.7
2023-03-12T17:22:45.023Z,975.7
2023-03-12T17:42:04.397Z,975.8
2023-03-12T18:01:23.033Z,975.8
2023-03-12T18:20:41.511Z,976
2023-03-12T18:39:59.538Z,976.1
2023-03-12T18:59:19.465Z,976.1
2023-03-12T19:18:38.838Z,976.1
2023-03-12T19:37:58.874Z,975.9
2023-03-12T19:57:18.163Z,975.7
2023-03-12T20:16:38.865Z,975.7
2023-03-12T20:35:57.786Z,975.7
2023-03-12T20:55:16.819Z,975.5
2023-03-12T21:14:34.671Z,975.2
2023-03-12T21:48:32.496Z,974.9
2023-03-12T22:07:48.988Z,974.7
2023-03-12T22:27:06.489Z,974.6
2023-03-12T22:46:23.356Z,974.4
2023-03-12T23:05:42.535Z,974.3
2023-03-12T23:25:05.216Z,974
2023-03-12T23:44:24.068Z,973.6
